MSC Krittika — H3RV — position and weather

sailwx.info

Track history (hours):
 
Tides and Currents Weather Stations Pressure Air Temp Water Temp Dewpoint Dewpoint Depression Visibility Wind Speed Wind Dir Waves Ship Positions

MSC Krittika

Last reported at 2015-May-19 21:33 UTC. Time now 2015-May-28 21:52 UTC.
Position S 26°39' E 153°14'.
Warning: this ship's position is 9 days out of date.

Length 202 m; draft 11.8 m.

Type: Ship (hazmat cat A). MMSI: 354725000.

Date/timePositionNaut miles runAvg speedWind from/ knotsBaromVisibWave heightAir tempDewpointWater temp
2015-May-19 21:33S 26°39' E 153°14'1312.9
2015-May-19 20:34S 26°51' E 153°09'1616.2
2015-May-19 19:33S 27°05' E 153°19'1413.8
2015-May-19 18:33S 27°18' E 153°13'5 4.6
2015-May-19 17:32S 27°22' E 153°10'0 0.0
2015-May-19 16:32S 27°22' E 153°10'0 0.0
2015-May-19 15:32S 27°22' E 153°10'0 0.0
2015-May-19 14:32S 27°22' E 153°10'0 0.0
2015-May-19 13:32S 27°22' E 153°10'0 0.0
2015-May-19 12:08S 27°22' E 153°10'0 0.0
2015-May-19 11:32S 27°22' E 153°10'0 0.0
2015-May-19 10:32S 27°22' E 153°10'0 0.0
2015-May-19 09:23S 27°22' E 153°10'0 0.0
2015-May-19 08:32S 27°22' E 153°10'0 0.0
2015-May-19 07:20S 27°22' E 153°10'0 0.0
2015-May-19 06:32S 27°22' E 153°10'0 0.0
2015-May-19 05:32S 27°22' E 153°10'0 0.0
2015-May-19 04:32S 27°22' E 153°10'0 0.0
2015-May-19 03:32S 27°22' E 153°10'1 0.9
2015-May-19 02:33S 27°21' E 153°11'1313.4
2015-May-19 01:34S 27°11' E 153°21'1515.1
2015-May-19 00:34S 26°58' E 153°13'1413.9
2015-May-18 23:34S 26°44' E 153°11'6 5.5
2015-May-18 22:33S 26°44' E 153°17'8 8.1
2015-May-18 21:34S 26°48' E 153°25'1110.8
2015-May-18 20:33S 26°52' E 153°36'  
2015-May-15 10:15S 36°09' E 174°59'5 7.5
2015-May-15 09:33S 36°14' E 174°59'7 7.3
2015-May-15 08:33S 36°21' E 175°01'3 0.6
2015-May-15 03:31S 36°19' E 174°59'2 1.6
2015-May-15 02:31S 36°17' E 174°57'6 6.3
2015-May-15 01:33S 36°23' E 174°59'7 7.2
2015-May-15 00:33S 36°30' E 174°59'7 7.4
2015-May-14 23:33S 36°38' E 174°57'8 7.7
2015-May-14 22:33S 36°44' E 174°51'7 7.3
2015-May-14 21:32S 36°50' E 174°47'0 0.3
2015-May-14 20:29S 36°50' E 174°47'0 0.0
2015-May-14 19:32S 36°50' E 174°47'0 0.0
2015-May-14 18:32S 36°50' E 174°47'0 0.0
2015-May-14 17:32S 36°50' E 174°47'0 0.0
2015-May-14 16:32S 36°50' E 174°47'0 0.0
2015-May-14 15:32S 36°50' E 174°47'0 0.0
2015-May-14 14:32S 36°50' E 174°47'0 0.2
2015-May-14 13:34S 36°50' E 174°47'3 2.9
2015-May-14 12:34S 36°48' E 174°49'5 4.7
2015-May-14 11:32S 36°44' E 174°52'0 0.1
2015-May-14 10:32S 36°44' E 174°52'0 0.0
2015-May-14 09:32S 36°44' E 174°52'0 0.0
2015-May-14 08:32S 36°44' E 174°52'0 0.0
2015-May-14 07:32S 36°44' E 174°52'0 0.0
2015-May-14 06:32S 36°44' E 174°52'0 0.0
2015-May-14 05:32S 36°44' E 174°52'0 0.0
2015-May-14 04:32S 36°44' E 174°52'0 0.0
2015-May-14 03:32S 36°44' E 174°52'0 0.0
2015-May-14 02:32S 36°44' E 174°52'0 0.0
2015-May-14 01:32S 36°44' E 174°52'0 0.0
2015-May-14 00:32S 36°44' E 174°52'0 0.0
2015-May-13 23:32S 36°44' E 174°52'0 0.0
2015-May-13 22:32S 36°44' E 174°52'0 0.0
2015-May-13 21:32S 36°44' E 174°52'0 0.0
2015-May-13 20:32S 36°44' E 174°52'0 0.0
2015-May-13 19:29S 36°44' E 174°52'0 0.0
2015-May-13 18:29S 36°44' E 174°52'0 0.0
2015-May-13 17:23S 36°44' E 174°52'0 0.0
2015-May-13 16:29S 36°44' E 174°52'0 0.0
2015-May-13 15:32S 36°44' E 174°52'1 1.4
2015-May-13 14:34S 36°43' E 174°53'9 8.8
2015-May-13 13:33S 36°35' E 174°59'9 8.8
2015-May-13 12:34S 36°29' E 175°07'9 8.9
2015-May-13 11:33S 36°24' E 175°16'20 9.3
2015-May-13 09:26S 36°28' E 175°40'  
Track history (hours):
 
Tides and Currents Weather Stations Pressure Air Temp Water Temp Dewpoint Dewpoint Depression Visibility Wind Speed Wind Dir Waves Ship Positions

MSC Krittika

Last reported at 2015-May-19 21:33 UTC. Time now 2015-May-28 21:52 UTC.
Position S 26°39' E 153°14'.
Warning: this ship's position is 9 days out of date.

Length 202 m; draft 11.8 m.

Type: Ship (hazmat cat A). MMSI: 354725000.

Date/timePositionNaut miles runAvg speedWind from/ knotsBaromVisibWave heightAir tempDewpointWater temp
2015-May-19 21:33S 26°39' E 153°14'1312.9
2015-May-19 20:34S 26°51' E 153°09'1616.2
2015-May-19 19:33S 27°05' E 153°19'1413.8
2015-May-19 18:33S 27°18' E 153°13'5 4.6
2015-May-19 17:32S 27°22' E 153°10'0 0.0
2015-May-19 16:32S 27°22' E 153°10'0 0.0
2015-May-19 15:32S 27°22' E 153°10'0 0.0
2015-May-19 14:32S 27°22' E 153°10'0 0.0
2015-May-19 13:32S 27°22' E 153°10'0 0.0
2015-May-19 12:08S 27°22' E 153°10'0 0.0
2015-May-19 11:32S 27°22' E 153°10'0 0.0
2015-May-19 10:32S 27°22' E 153°10'0 0.0
2015-May-19 09:23S 27°22' E 153°10'0 0.0
2015-May-19 08:32S 27°22' E 153°10'0 0.0
2015-May-19 07:20S 27°22' E 153°10'0 0.0
2015-May-19 06:32S 27°22' E 153°10'0 0.0
2015-May-19 05:32S 27°22' E 153°10'0 0.0
2015-May-19 04:32S 27°22' E 153°10'0 0.0
2015-May-19 03:32S 27°22' E 153°10'1 0.9
2015-May-19 02:33S 27°21' E 153°11'1313.4
2015-May-19 01:34S 27°11' E 153°21'1515.1
2015-May-19 00:34S 26°58' E 153°13'1413.9
2015-May-18 23:34S 26°44' E 153°11'6 5.5
2015-May-18 22:33S 26°44' E 153°17'8 8.1
2015-May-18 21:34S 26°48' E 153°25'1110.8
2015-May-18 20:33S 26°52' E 153°36'  
2015-May-15 10:15S 36°09' E 174°59'5 7.5
2015-May-15 09:33S 36°14' E 174°59'7 7.3
2015-May-15 08:33S 36°21' E 175°01'3 0.6
2015-May-15 03:31S 36°19' E 174°59'2 1.6
2015-May-15 02:31S 36°17' E 174°57'6 6.3
2015-May-15 01:33S 36°23' E 174°59'7 7.2
2015-May-15 00:33S 36°30' E 174°59'7 7.4
2015-May-14 23:33S 36°38' E 174°57'8 7.7
2015-May-14 22:33S 36°44' E 174°51'7 7.3
2015-May-14 21:32S 36°50' E 174°47'0 0.3
2015-May-14 20:29S 36°50' E 174°47'0 0.0
2015-May-14 19:32S 36°50' E 174°47'0 0.0
2015-May-14 18:32S 36°50' E 174°47'0 0.0
2015-May-14 17:32S 36°50' E 174°47'0 0.0
2015-May-14 16:32S 36°50' E 174°47'0 0.0
2015-May-14 15:32S 36°50' E 174°47'0 0.0
2015-May-14 14:32S 36°50' E 174°47'0 0.2
2015-May-14 13:34S 36°50' E 174°47'3 2.9
2015-May-14 12:34S 36°48' E 174°49'5 4.7
2015-May-14 11:32S 36°44' E 174°52'0 0.1
2015-May-14 10:32S 36°44' E 174°52'0 0.0
2015-May-14 09:32S 36°44' E 174°52'0 0.0
2015-May-14 08:32S 36°44' E 174°52'0 0.0
2015-May-14 07:32S 36°44' E 174°52'0 0.0
2015-May-14 06:32S 36°44' E 174°52'0 0.0
2015-May-14 05:32S 36°44' E 174°52'0 0.0
2015-May-14 04:32S 36°44' E 174°52'0 0.0
2015-May-14 03:32S 36°44' E 174°52'0 0.0
2015-May-14 02:32S 36°44' E 174°52'0 0.0
2015-May-14 01:32S 36°44' E 174°52'0 0.0
2015-May-14 00:32S 36°44' E 174°52'0 0.0
2015-May-13 23:32S 36°44' E 174°52'0 0.0
2015-May-13 22:32S 36°44' E 174°52'0 0.0
2015-May-13 21:32S 36°44' E 174°52'0 0.0
2015-May-13 20:32S 36°44' E 174°52'0 0.0
2015-May-13 19:29S 36°44' E 174°52'0 0.0
2015-May-13 18:29S 36°44' E 174°52'0 0.0
2015-May-13 17:23S 36°44' E 174°52'0 0.0
2015-May-13 16:29S 36°44' E 174°52'0 0.0
2015-May-13 15:32S 36°44' E 174°52'1 1.4
2015-May-13 14:34S 36°43' E 174°53'9 8.8
2015-May-13 13:33S 36°35' E 174°59'9 8.8
2015-May-13 12:34S 36°29' E 175°07'9 8.9
2015-May-13 11:33S 36°24' E 175°16'20 9.3
2015-May-13 09:26S 36°28' E 175°40'  

Dump ship's entire track history